sensor_id;sensor_type;location;lat;lon;timestamp;P1;durP1;ratioP1;P2;durP2;ratioP2
27113;SDS011;14648;49.730;8.614;2023-12-14T00:00:29;10.17;;;4.50;;
27113;SDS011;14648;49.730;8.614;2023-12-14T00:02:56;8.17;;;4.67;;
27113;SDS011;14648;49.730;8.614;2023-12-14T00:05:22;14.97;;;7.03;;
27113;SDS011;14648;49.730;8.614;2023-12-14T00:07:47;17.33;;;3.50;;
27113;SDS011;14648;49.730;8.614;2023-12-14T00:10:13;8.93;;;4.30;;
27113;SDS011;14648;49.730;8.614;2023-12-14T00:12:39;7.63;;;4.47;;
27113;SDS011;14648;49.730;8.614;2023-12-14T00:15:05;8.33;;;5.63;;
27113;SDS011;14648;49.730;8.614;2023-12-14T00:17:31;16.00;;;5.03;;
27113;SDS011;14648;49.730;8.614;2023-12-14T00:19:57;10.07;;;4.97;;
27113;SDS011;14648;49.730;8.614;2023-12-14T00:22:23;7.77;;;4.57;;
27113;SDS011;14648;49.730;8.614;2023-12-14T00:24:49;8.07;;;5.53;;
27113;SDS011;14648;49.730;8.614;2023-12-14T00:27:15;7.90;;;4.90;;
27113;SDS011;14648;49.730;8.614;2023-12-14T00:29:41;6.17;;;4.40;;
27113;SDS011;14648;49.730;8.614;2023-12-14T00:32:06;12.43;;;4.80;;
27113;SDS011;14648;49.730;8.614;2023-12-14T00:34:32;6.20;;;5.60;;
27113;SDS011;14648;49.730;8.614;2023-12-14T00:36:58;4.80;;;4.07;;
27113;SDS011;14648;49.730;8.614;2023-12-14T00:39:23;5.23;;;4.70;;
27113;SDS011;14648;49.730;8.614;2023-12-14T00:41:49;20.60;;;6.10;;
27113;SDS011;14648;49.730;8.614;2023-12-14T00:44:15;7.73;;;4.33;;
27113;SDS011;14648;49.730;8.614;2023-12-14T00:46:40;8.63;;;5.83;;
27113;SDS011;14648;49.730;8.614;2023-12-14T00:49:06;10.27;;;5.30;;
27113;SDS011;14648;49.730;8.614;2023-12-14T00:51:33;9.83;;;5.63;;
27113;SDS011;14648;49.730;8.614;2023-12-14T00:53:58;6.70;;;4.70;;
27113;SDS011;14648;49.730;8.614;2023-12-14T00:56:24;11.40;;;5.13;;
27113;SDS011;14648;49.730;8.614;2023-12-14T00:58:50;9.03;;;5.60;;
27113;SDS011;14648;49.730;8.614;2023-12-14T01:01:16;8.10;;;6.00;;
27113;SDS011;14648;49.730;8.614;2023-12-14T01:03:41;19.93;;;7.43;;
27113;SDS011;14648;49.730;8.614;2023-12-14T01:06:07;10.23;;;6.23;;
27113;SDS011;14648;49.730;8.614;2023-12-14T01:08:33;11.40;;;7.03;;
27113;SDS011;14648;49.730;8.614;2023-12-14T01:10:58;10.77;;;6.23;;
27113;SDS011;14648;49.730;8.614;2023-12-14T01:13:24;4.97;;;4.30;;
27113;SDS011;14648;49.730;8.614;2023-12-14T01:15:50;6.17;;;5.23;;
27113;SDS011;14648;49.730;8.614;2023-12-14T01:18:16;17.90;;;5.77;;
27113;SDS011;14648;49.730;8.614;2023-12-14T01:20:42;6.07;;;4.60;;
27113;SDS011;14648;49.730;8.614;2023-12-14T01:23:08;9.57;;;6.60;;
27113;SDS011;14648;49.730;8.614;2023-12-14T01:25:37;11.27;;;6.10;;
27113;SDS011;14648;49.730;8.614;2023-12-14T01:28:03;7.00;;;5.40;;
27113;SDS011;14648;49.730;8.614;2023-12-14T01:30:28;7.83;;;4.97;;
27113;SDS011;14648;49.730;8.614;2023-12-14T01:32:54;8.40;;;5.00;;
27113;SDS011;14648;49.730;8.614;2023-12-14T01:35:20;11.50;;;6.13;;
27113;SDS011;14648;49.730;8.614;2023-12-14T01:37:46;11.87;;;5.67;;
27113;SDS011;14648;49.730;8.614;2023-12-14T01:40:12;7.77;;;6.07;;
27113;SDS011;14648;49.730;8.614;2023-12-14T01:42:38;12.10;;;5.60;;
27113;SDS011;14648;49.730;8.614;2023-12-14T01:45:05;6.67;;;4.87;;
27113;SDS011;14648;49.730;8.614;2023-12-14T01:47:31;14.93;;;6.10;;
27113;SDS011;14648;49.730;8.614;2023-12-14T01:49:57;8.93;;;5.60;;
27113;SDS011;14648;49.730;8.614;2023-12-14T01:52:22;10.67;;;5.63;;
27113;SDS011;14648;49.730;8.614;2023-12-14T01:54:48;13.63;;;6.67;;
27113;SDS011;14648;49.730;8.614;2023-12-14T01:57:14;12.17;;;5.73;;
27113;SDS011;14648;49.730;8.614;2023-12-14T01:59:39;12.20;;;5.90;;
27113;SDS011;14648;49.730;8.614;2023-12-14T02:02:05;7.70;;;5.07;;
27113;SDS011;14648;49.730;8.614;2023-12-14T02:04:32;7.00;;;4.47;;
27113;SDS011;14648;49.730;8.614;2023-12-14T02:06:58;4.93;;;4.30;;
27113;SDS011;14648;49.730;8.614;2023-12-14T02:09:25;10.37;;;5.33;;
27113;SDS011;14648;49.730;8.614;2023-12-14T02:11:50;8.50;;;5.13;;
27113;SDS011;14648;49.730;8.614;2023-12-14T02:14:16;9.03;;;3.93;;
27113;SDS011;14648;49.730;8.614;2023-12-14T02:16:42;17.17;;;4.30;;
27113;SDS011;14648;49.730;8.614;2023-12-14T02:19:08;6.20;;;3.77;;
27113;SDS011;14648;49.730;8.614;2023-12-14T02:21:33;7.70;;;4.90;;
27113;SDS011;14648;49.730;8.614;2023-12-14T02:23:59;8.40;;;5.20;;
27113;SDS011;14648;49.730;8.614;2023-12-14T02:26:25;5.83;;;3.83;;
27113;SDS011;14648;49.730;8.614;2023-12-14T02:28:50;6.50;;;3.27;;
27113;SDS011;14648;49.730;8.614;2023-12-14T02:31:17;7.80;;;4.47;;
27113;SDS011;14648;49.730;8.614;2023-12-14T02:33:44;10.87;;;4.40;;
27113;SDS011;14648;49.730;8.614;2023-12-14T02:36:09;8.23;;;5.57;;
27113;SDS011;14648;49.730;8.614;2023-12-14T02:38:35;6.93;;;4.03;;
27113;SDS011;14648;49.730;8.614;2023-12-14T02:41:01;9.50;;;3.57;;
27113;SDS011;14648;49.730;8.614;2023-12-14T02:43:27;6.23;;;4.00;;
27113;SDS011;14648;49.730;8.614;2023-12-14T02:45:53;10.33;;;4.57;;
27113;SDS011;14648;49.730;8.614;2023-12-14T02:48:24;8.40;;;5.37;;
27113;SDS011;14648;49.730;8.614;2023-12-14T02:50:50;8.87;;;3.17;;
27113;SDS011;14648;49.730;8.614;2023-12-14T02:53:15;12.40;;;5.37;;
27113;SDS011;14648;49.730;8.614;2023-12-14T02:55:41;9.07;;;3.70;;
27113;SDS011;14648;49.730;8.614;2023-12-14T02:58:07;8.60;;;4.30;;
27113;SDS011;14648;49.730;8.614;2023-12-14T03:00:33;6.43;;;3.60;;
27113;SDS011;14648;49.730;8.614;2023-12-14T03:02:59;5.67;;;4.13;;
27113;SDS011;14648;49.730;8.614;2023-12-14T03:05:24;4.77;;;3.30;;
27113;SDS011;14648;49.730;8.614;2023-12-14T03:07:50;3.67;;;2.70;;
27113;SDS011;14648;49.730;8.614;2023-12-14T03:10:16;21.73;;;4.33;;
27113;SDS011;14648;49.730;8.614;2023-12-14T03:12:41;6.47;;;3.97;;
27113;SDS011;14648;49.730;8.614;2023-12-14T03:15:07;6.40;;;3.83;;
27113;SDS011;14648;49.730;8.614;2023-12-14T03:17:33;4.90;;;3.20;;
27113;SDS011;14648;49.730;8.614;2023-12-14T03:19:59;4.47;;;3.20;;
27113;SDS011;14648;49.730;8.614;2023-12-14T03:22:25;11.73;;;3.30;;
27113;SDS011;14648;49.730;8.614;2023-12-14T03:24:51;4.93;;;2.80;;
27113;SDS011;14648;49.730;8.614;2023-12-14T03:27:16;7.13;;;3.47;;
27113;SDS011;14648;49.730;8.614;2023-12-14T03:29:42;3.30;;;3.10;;
27113;SDS011;14648;49.730;8.614;2023-12-14T03:32:08;3.00;;;2.73;;
27113;SDS011;14648;49.730;8.614;2023-12-14T03:34:33;6.60;;;2.53;;
27113;SDS011;14648;49.730;8.614;2023-12-14T03:36:59;11.63;;;2.93;;
27113;SDS011;14648;49.730;8.614;2023-12-14T03:39:25;6.30;;;3.00;;
27113;SDS011;14648;49.730;8.614;2023-12-14T03:41:51;6.67;;;4.23;;
27113;SDS011;14648;49.730;8.614;2023-12-14T03:44:17;6.67;;;4.07;;
27113;SDS011;14648;49.730;8.614;2023-12-14T03:46:42;13.90;;;4.20;;
27113;SDS011;14648;49.730;8.614;2023-12-14T03:49:08;4.20;;;3.70;;
27113;SDS011;14648;49.730;8.614;2023-12-14T03:51:34;7.60;;;5.07;;
27113;SDS011;14648;49.730;8.614;2023-12-14T03:53:59;6.50;;;3.80;;
27113;SDS011;14648;49.730;8.614;2023-12-14T03:56:25;3.60;;;2.60;;
27113;SDS011;14648;49.730;8.614;2023-12-14T03:58:51;7.10;;;3.57;;
27113;SDS011;14648;49.730;8.614;2023-12-14T04:01:20;6.00;;;3.60;;
27113;SDS011;14648;49.730;8.614;2023-12-14T04:03:46;5.60;;;3.23;;
27113;SDS011;14648;49.730;8.614;2023-12-14T04:06:13;6.90;;;3.77;;
27113;SDS011;14648;49.730;8.614;2023-12-14T04:08:39;4.37;;;3.57;;
27113;SDS011;14648;49.730;8.614;2023-12-14T04:11:06;4.50;;;2.40;;
27113;SDS011;14648;49.730;8.614;2023-12-14T04:13:32;15.50;;;5.40;;
27113;SDS011;14648;49.730;8.614;2023-12-14T04:15:58;6.00;;;4.07;;
27113;SDS011;14648;49.730;8.614;2023-12-14T04:18:24;7.63;;;5.03;;
27113;SDS011;14648;49.730;8.614;2023-12-14T04:20:50;6.90;;;4.27;;
27113;SDS011;14648;49.730;8.614;2023-12-14T04:23:16;14.13;;;5.87;;
27113;SDS011;14648;49.730;8.614;2023-12-14T04:25:42;8.10;;;3.80;;
27113;SDS011;14648;49.730;8.614;2023-12-14T04:28:07;7.20;;;3.97;;
27113;SDS011;14648;49.730;8.614;2023-12-14T04:30:33;5.87;;;4.20;;
27113;SDS011;14648;49.730;8.614;2023-12-14T04:32:59;6.17;;;4.50;;
27113;SDS011;14648;49.730;8.614;2023-12-14T04:35:25;3.30;;;3.00;;
27113;SDS011;14648;49.730;8.614;2023-12-14T04:37:50;6.33;;;3.13;;
27113;SDS011;14648;49.730;8.614;2023-12-14T04:40:16;6.27;;;4.10;;
27113;SDS011;14648;49.730;8.614;2023-12-14T04:42:42;9.43;;;4.10;;
27113;SDS011;14648;49.730;8.614;2023-12-14T04:45:08;5.00;;;4.43;;
27113;SDS011;14648;49.730;8.614;2023-12-14T04:47:34;6.47;;;4.23;;
27113;SDS011;14648;49.730;8.614;2023-12-14T04:50:01;9.13;;;4.00;;
27113;SDS011;14648;49.730;8.614;2023-12-14T04:52:28;4.83;;;3.63;;
27113;SDS011;14648;49.730;8.614;2023-12-14T04:54:54;6.20;;;3.30;;
27113;SDS011;14648;49.730;8.614;2023-12-14T04:57:20;5.03;;;2.60;;
27113;SDS011;14648;49.730;8.614;2023-12-14T04:59:45;4.60;;;3.03;;
27113;SDS011;14648;49.730;8.614;2023-12-14T05:02:11;4.07;;;3.70;;
27113;SDS011;14648;49.730;8.614;2023-12-14T05:04:37;6.53;;;4.53;;
27113;SDS011;14648;49.730;8.614;2023-12-14T05:07:03;6.20;;;3.90;;
27113;SDS011;14648;49.730;8.614;2023-12-14T05:09:29;8.17;;;4.33;;
27113;SDS011;14648;49.730;8.614;2023-12-14T05:11:54;7.17;;;3.73;;
27113;SDS011;14648;49.730;8.614;2023-12-14T05:14:20;6.10;;;4.33;;
27113;SDS011;14648;49.730;8.614;2023-12-14T05:16:46;7.03;;;3.70;;
27113;SDS011;14648;49.730;8.614;2023-12-14T05:19:12;8.10;;;3.50;;
27113;SDS011;14648;49.730;8.614;2023-12-14T05:21:38;9.07;;;5.27;;
27113;SDS011;14648;49.730;8.614;2023-12-14T05:24:04;7.97;;;4.93;;
27113;SDS011;14648;49.730;8.614;2023-12-14T05:26:30;5.93;;;3.77;;
27113;SDS011;14648;49.730;8.614;2023-12-14T05:28:56;6.10;;;4.43;;
27113;SDS011;14648;49.730;8.614;2023-12-14T05:31:22;9.63;;;5.63;;
27113;SDS011;14648;49.730;8.614;2023-12-14T05:33:48;14.00;;;5.50;;
27113;SDS011;14648;49.730;8.614;2023-12-14T05:36:13;10.63;;;5.60;;
27113;SDS011;14648;49.730;8.614;2023-12-14T05:38:40;14.87;;;7.20;;
27113;SDS011;14648;49.730;8.614;2023-12-14T05:41:06;16.43;;;6.00;;
27113;SDS011;14648;49.730;8.614;2023-12-14T05:43:33;14.77;;;6.37;;
27113;SDS011;14648;49.730;8.614;2023-12-14T05:45:59;11.80;;;5.30;;
27113;SDS011;14648;49.730;8.614;2023-12-14T05:48:25;8.53;;;4.87;;
27113;SDS011;14648;49.730;8.614;2023-12-14T05:50:54;7.20;;;4.83;;
27113;SDS011;14648;49.730;8.614;2023-12-14T05:53:21;10.33;;;4.73;;
27113;SDS011;14648;49.730;8.614;2023-12-14T05:55:47;8.60;;;5.03;;
27113;SDS011;14648;49.730;8.614;2023-12-14T05:58:13;10.03;;;6.07;;
27113;SDS011;14648;49.730;8.614;2023-12-14T06:00:38;8.93;;;5.20;;
27113;SDS011;14648;49.730;8.614;2023-12-14T06:03:05;22.33;;;7.30;;
27113;SDS011;14648;49.730;8.614;2023-12-14T06:05:31;6.53;;;4.20;;
27113;SDS011;14648;49.730;8.614;2023-12-14T06:07:56;10.10;;;5.23;;
27113;SDS011;14648;49.730;8.614;2023-12-14T06:10:22;14.30;;;5.40;;
27113;SDS011;14648;49.730;8.614;2023-12-14T06:12:48;9.40;;;5.33;;
27113;SDS011;14648;49.730;8.614;2023-12-14T06:15:14;13.17;;;5.67;;
27113;SDS011;14648;49.730;8.614;2023-12-14T06:17:39;8.97;;;4.80;;
27113;SDS011;14648;49.730;8.614;2023-12-14T06:20:07;9.47;;;6.00;;
27113;SDS011;14648;49.730;8.614;2023-12-14T06:22:35;7.50;;;5.30;;
27113;SDS011;14648;49.730;8.614;2023-12-14T06:25:02;10.00;;;5.40;;
27113;SDS011;14648;49.730;8.614;2023-12-14T06:27:28;17.80;;;5.40;;
27113;SDS011;14648;49.730;8.614;2023-12-14T06:29:54;13.90;;;7.20;;
27113;SDS011;14648;49.730;8.614;2023-12-14T06:32:20;10.00;;;7.10;;
27113;SDS011;14648;49.730;8.614;2023-12-14T06:34:46;11.60;;;5.97;;
27113;SDS011;14648;49.730;8.614;2023-12-14T06:37:12;11.73;;;6.47;;
27113;SDS011;14648;49.730;8.614;2023-12-14T06:39:40;14.60;;;8.53;;
27113;SDS011;14648;49.730;8.614;2023-12-14T06:42:06;10.40;;;4.67;;
27113;SDS011;14648;49.730;8.614;2023-12-14T06:44:35;13.17;;;5.90;;
27113;SDS011;14648;49.730;8.614;2023-12-14T06:47:01;11.67;;;6.73;;
27113;SDS011;14648;49.730;8.614;2023-12-14T06:49:27;7.00;;;4.97;;
27113;SDS011;14648;49.730;8.614;2023-12-14T06:51:55;9.93;;;5.47;;
27113;SDS011;14648;49.730;8.614;2023-12-14T06:54:21;13.50;;;6.67;;
27113;SDS011;14648;49.730;8.614;2023-12-14T06:56:47;12.60;;;6.17;;
27113;SDS011;14648;49.730;8.614;2023-12-14T06:59:12;15.63;;;6.73;;
27113;SDS011;14648;49.730;8.614;2023-12-14T07:01:38;5.53;;;4.80;;
27113;SDS011;14648;49.730;8.614;2023-12-14T07:04:04;11.50;;;5.20;;
27113;SDS011;14648;49.730;8.614;2023-12-14T07:06:30;11.83;;;5.50;;
27113;SDS011;14648;49.730;8.614;2023-12-14T07:08:56;11.33;;;6.20;;
27113;SDS011;14648;49.730;8.614;2023-12-14T07:11:21;9.23;;;5.80;;
27113;SDS011;14648;49.730;8.614;2023-12-14T07:13:47;7.33;;;4.80;;
27113;SDS011;14648;49.730;8.614;2023-12-14T07:16:13;12.37;;;6.63;;
27113;SDS011;14648;49.730;8.614;2023-12-14T07:18:42;13.17;;;7.10;;
27113;SDS011;14648;49.730;8.614;2023-12-14T07:21:09;16.87;;;6.70;;
27113;SDS011;14648;49.730;8.614;2023-12-14T07:23:36;7.77;;;5.57;;
27113;SDS011;14648;49.730;8.614;2023-12-14T07:26:02;11.00;;;5.97;;
27113;SDS011;14648;49.730;8.614;2023-12-14T07:28:28;12.90;;;4.73;;
27113;SDS011;14648;49.730;8.614;2023-12-14T07:30:54;10.43;;;5.40;;
27113;SDS011;14648;49.730;8.614;2023-12-14T07:33:20;18.73;;;7.70;;
27113;SDS011;14648;49.730;8.614;2023-12-14T07:35:46;11.93;;;6.40;;
27113;SDS011;14648;49.730;8.614;2023-12-14T07:38:12;9.33;;;5.77;;
27113;SDS011;14648;49.730;8.614;2023-12-14T07:40:38;9.67;;;5.60;;
27113;SDS011;14648;49.730;8.614;2023-12-14T07:43:05;6.73;;;4.40;;
27113;SDS011;14648;49.730;8.614;2023-12-14T07:45:32;7.10;;;4.70;;
27113;SDS011;14648;49.730;8.614;2023-12-14T07:47:59;7.63;;;4.83;;
27113;SDS011;14648;49.730;8.614;2023-12-14T07:50:25;14.40;;;3.57;;
27113;SDS011;14648;49.730;8.614;2023-12-14T07:52:51;9.27;;;4.70;;
27113;SDS011;14648;49.730;8.614;2023-12-14T07:55:18;12.83;;;6.27;;
27113;SDS011;14648;49.730;8.614;2023-12-14T07:57:44;7.70;;;4.87;;
27113;SDS011;14648;49.730;8.614;2023-12-14T08:00:10;17.00;;;7.80;;
27113;SDS011;14648;49.730;8.614;2023-12-14T08:02:36;6.77;;;4.10;;
27113;SDS011;14648;49.730;8.614;2023-12-14T08:05:03;4.50;;;2.60;;
27113;SDS011;14648;49.730;8.614;2023-12-14T08:07:30;9.30;;;3.93;;
27113;SDS011;14648;49.730;8.614;2023-12-14T08:09:57;5.73;;;3.70;;
27113;SDS011;14648;49.730;8.614;2023-12-14T08:12:24;5.83;;;3.80;;
27113;SDS011;14648;49.730;8.614;2023-12-14T08:14:50;10.83;;;2.90;;
27113;SDS011;14648;49.730;8.614;2023-12-14T08:17:17;3.43;;;2.57;;
27113;SDS011;14648;49.730;8.614;2023-12-14T08:19:43;9.07;;;4.50;;
27113;SDS011;14648;49.730;8.614;2023-12-14T08:22:09;3.47;;;2.50;;
27113;SDS011;14648;49.730;8.614;2023-12-14T08:24:39;3.77;;;2.60;;
27113;SDS011;14648;49.730;8.614;2023-12-14T08:27:05;5.67;;;3.40;;
27113;SDS011;14648;49.730;8.614;2023-12-14T08:29:31;8.13;;;3.40;;
27113;SDS011;14648;49.730;8.614;2023-12-14T08:31:56;4.83;;;3.80;;
27113;SDS011;14648;49.730;8.614;2023-12-14T08:34:27;4.47;;;2.67;;
27113;SDS011;14648;49.730;8.614;2023-12-14T08:36:53;14.93;;;3.50;;
27113;SDS011;14648;49.730;8.614;2023-12-14T08:39:19;6.43;;;4.20;;
27113;SDS011;14648;49.730;8.614;2023-12-14T08:41:45;14.57;;;5.00;;
27113;SDS011;14648;49.730;8.614;2023-12-14T08:44:12;7.50;;;4.80;;
27113;SDS011;14648;49.730;8.614;2023-12-14T08:46:44;2.80;;;2.60;;
27113;SDS011;14648;49.730;8.614;2023-12-14T08:49:11;7.63;;;4.00;;
27113;SDS011;14648;49.730;8.614;2023-12-14T08:51:38;8.03;;;4.03;;
27113;SDS011;14648;49.730;8.614;2023-12-14T08:54:05;4.60;;;3.97;;
27113;SDS011;14648;49.730;8.614;2023-12-14T08:56:31;7.40;;;4.10;;
27113;SDS011;14648;49.730;8.614;2023-12-14T08:58:57;7.27;;;3.40;;
27113;SDS011;14648;49.730;8.614;2023-12-14T09:01:24;5.93;;;4.50;;
27113;SDS011;14648;49.730;8.614;2023-12-14T09:03:50;3.60;;;3.10;;
27113;SDS011;14648;49.730;8.614;2023-12-14T09:06:16;13.20;;;5.67;;
27113;SDS011;14648;49.730;8.614;2023-12-14T09:08:43;6.77;;;3.90;;
27113;SDS011;14648;49.730;8.614;2023-12-14T09:11:09;11.57;;;4.63;;
27113;SDS011;14648;49.730;8.614;2023-12-14T09:13:35;7.33;;;3.87;;
27113;SDS011;14648;49.730;8.614;2023-12-14T09:16:01;4.97;;;4.10;;
27113;SDS011;14648;49.730;8.614;2023-12-14T09:18:26;6.37;;;4.07;;
27113;SDS011;14648;49.730;8.614;2023-12-14T09:20:52;5.80;;;3.03;;
27113;SDS011;14648;49.730;8.614;2023-12-14T09:23:18;6.40;;;3.63;;
27113;SDS011;14648;49.730;8.614;2023-12-14T09:25:44;9.20;;;4.47;;
27113;SDS011;14648;49.730;8.614;2023-12-14T09:28:10;6.63;;;3.60;;
27113;SDS011;14648;49.730;8.614;2023-12-14T09:30:36;9.40;;;4.83;;
27113;SDS011;14648;49.730;8.614;2023-12-14T09:33:02;6.50;;;3.83;;
27113;SDS011;14648;49.730;8.614;2023-12-14T09:35:28;9.77;;;6.10;;
27113;SDS011;14648;49.730;8.614;2023-12-14T09:37:54;5.87;;;3.27;;
27113;SDS011;14648;49.730;8.614;2023-12-14T09:40:21;9.00;;;5.47;;
27113;SDS011;14648;49.730;8.614;2023-12-14T09:42:48;15.93;;;5.50;;
27113;SDS011;14648;49.730;8.614;2023-12-14T09:45:14;5.50;;;4.50;;
27113;SDS011;14648;49.730;8.614;2023-12-14T09:47:42;5.80;;;4.70;;
27113;SDS011;14648;49.730;8.614;2023-12-14T09:50:09;10.23;;;5.17;;
27113;SDS011;14648;49.730;8.614;2023-12-14T09:52:35;9.03;;;4.73;;
27113;SDS011;14648;49.730;8.614;2023-12-14T09:55:01;5.23;;;4.33;;
27113;SDS011;14648;49.730;8.614;2023-12-14T09:57:29;7.30;;;3.87;;
27113;SDS011;14648;49.730;8.614;2023-12-14T09:59:55;4.70;;;4.17;;
27113;SDS011;14648;49.730;8.614;2023-12-14T10:02:25;8.00;;;4.10;;
27113;SDS011;14648;49.730;8.614;2023-12-14T10:04:52;8.53;;;5.07;;
27113;SDS011;14648;49.730;8.614;2023-12-14T10:07:18;8.33;;;3.90;;
27113;SDS011;14648;49.730;8.614;2023-12-14T10:09:46;9.73;;;4.30;;
27113;SDS011;14648;49.730;8.614;2023-12-14T10:12:12;4.10;;;2.97;;
27113;SDS011;14648;49.730;8.614;2023-12-14T10:14:38;4.27;;;3.37;;
27113;SDS011;14648;49.730;8.614;2023-12-14T10:19:59;5.90;;;3.67;;
27113;SDS011;14648;49.730;8.614;2023-12-14T10:22:28;6.40;;;4.50;;
27113;SDS011;14648;49.730;8.614;2023-12-14T10:24:57;10.17;;;4.50;;
27113;SDS011;14648;49.730;8.614;2023-12-14T10:27:23;31.87;;;4.97;;
27113;SDS011;14648;49.730;8.614;2023-12-14T10:29:49;9.93;;;5.23;;
27113;SDS011;14648;49.730;8.614;2023-12-14T10:32:15;3.83;;;3.00;;
27113;SDS011;14648;49.730;8.614;2023-12-14T10:34:43;8.63;;;4.30;;
27113;SDS011;14648;49.730;8.614;2023-12-14T10:37:09;8.57;;;3.93;;
27113;SDS011;14648;49.730;8.614;2023-12-14T10:39:37;3.50;;;3.20;;
27113;SDS011;14648;49.730;8.614;2023-12-14T10:42:08;6.07;;;4.43;;
27113;SDS011;14648;49.730;8.614;2023-12-14T10:44:35;6.20;;;4.33;;
27113;SDS011;14648;49.730;8.614;2023-12-14T10:47:03;6.30;;;4.57;;
27113;SDS011;14648;49.730;8.614;2023-12-14T10:49:29;11.37;;;6.00;;
27113;SDS011;14648;49.730;8.614;2023-12-14T10:51:56;8.10;;;4.77;;
27113;SDS011;14648;49.730;8.614;2023-12-14T10:54:24;10.17;;;5.00;;
27113;SDS011;14648;49.730;8.614;2023-12-14T10:56:57;7.00;;;3.90;;
27113;SDS011;14648;49.730;8.614;2023-12-14T10:59:24;5.73;;;4.50;;
27113;SDS011;14648;49.730;8.614;2023-12-14T11:01:53;15.03;;;5.37;;
27113;SDS011;14648;49.730;8.614;2023-12-14T11:04:23;9.47;;;5.20;;
27113;SDS011;14648;49.730;8.614;2023-12-14T11:06:53;4.60;;;3.70;;
27113;SDS011;14648;49.730;8.614;2023-12-14T11:09:21;11.97;;;6.00;;
27113;SDS011;14648;49.730;8.614;2023-12-14T11:14:18;5.70;;;3.53;;
27113;SDS011;14648;49.730;8.614;2023-12-14T11:16:47;9.03;;;3.90;;
27113;SDS011;14648;49.730;8.614;2023-12-14T11:21:48;7.17;;;;;
27113;SDS011;14648;49.730;8.614;2023-12-14T11:24:23;6.73;;;3.90;;
27113;SDS011;14648;49.730;8.614;2023-12-14T11:26:50;9.97;;;4.40;;
27113;SDS011;14648;49.730;8.614;2023-12-14T11:29:17;11.97;;;4.13;;
27113;SDS011;14648;49.730;8.614;2023-12-14T11:31:47;4.70;;;3.13;;
27113;SDS011;14648;49.730;8.614;2023-12-14T11:34:16;9.40;;;4.20;;
27113;SDS011;14648;49.730;8.614;2023-12-14T11:36:42;4.67;;;4.27;;
27113;SDS011;14648;49.730;8.614;2023-12-14T11:39:10;6.87;;;4.70;;
27113;SDS011;14648;49.730;8.614;2023-12-14T11:41:36;9.57;;;5.60;;
27113;SDS011;14648;49.730;8.614;2023-12-14T11:44:03;8.47;;;4.00;;
27113;SDS011;14648;49.730;8.614;2023-12-14T11:46:30;8.60;;;5.43;;
27113;SDS011;14648;49.730;8.614;2023-12-14T11:48:57;15.60;;;5.00;;
27113;SDS011;14648;49.730;8.614;2023-12-14T11:51:23;4.10;;;3.60;;
27113;SDS011;14648;49.730;8.614;2023-12-14T11:53:55;4.80;;;2.83;;
27113;SDS011;14648;49.730;8.614;2023-12-14T11:56:20;9.37;;;4.23;;
27113;SDS011;14648;49.730;8.614;2023-12-14T11:58:48;8.90;;;4.53;;
27113;SDS011;14648;49.730;8.614;2023-12-14T12:03:46;11.87;;;3.67;;
27113;SDS011;14648;49.730;8.614;2023-12-14T12:06:25;11.10;;;3.57;;
27113;SDS011;14648;49.730;8.614;2023-12-14T12:08:55;3.83;;;2.70;;
27113;SDS011;14648;49.730;8.614;2023-12-14T12:11:22;7.70;;;3.53;;
27113;SDS011;14648;49.730;8.614;2023-12-14T12:13:53;4.77;;;2.70;;
27113;SDS011;14648;49.730;8.614;2023-12-14T12:16:20;2.73;;;2.50;;
27113;SDS011;14648;49.730;8.614;2023-12-14T12:18:48;2.83;;;2.57;;
27113;SDS011;14648;49.730;8.614;2023-12-14T12:21:17;5.63;;;2.83;;
27113;SDS011;14648;49.730;8.614;2023-12-14T12:23:43;4.20;;;2.03;;
27113;SDS011;14648;49.730;8.614;2023-12-14T12:26:09;2.67;;;1.23;;
27113;SDS011;14648;49.730;8.614;2023-12-14T12:28:35;2.17;;;1.63;;
27113;SDS011;14648;49.730;8.614;2023-12-14T12:31:01;4.20;;;2.87;;
27113;SDS011;14648;49.730;8.614;2023-12-14T12:33:26;3.93;;;2.00;;
27113;SDS011;14648;49.730;8.614;2023-12-14T12:35:52;5.23;;;3.17;;
27113;SDS011;14648;49.730;8.614;2023-12-14T12:38:19;3.13;;;2.37;;
27113;SDS011;14648;49.730;8.614;2023-12-14T12:40:45;3.23;;;1.77;;
27113;SDS011;14648;49.730;8.614;2023-12-14T12:43:12;5.00;;;2.47;;
27113;SDS011;14648;49.730;8.614;2023-12-14T12:45:39;3.40;;;2.50;;
27113;SDS011;14648;49.730;8.614;2023-12-14T12:48:05;4.87;;;2.23;;
27113;SDS011;14648;49.730;8.614;2023-12-14T12:50:32;2.83;;;2.63;;
27113;SDS011;14648;49.730;8.614;2023-12-14T12:52:58;4.37;;;2.20;;
27113;SDS011;14648;49.730;8.614;2023-12-14T12:55:24;2.43;;;2.10;;
27113;SDS011;14648;49.730;8.614;2023-12-14T12:57:50;2.93;;;1.63;;
27113;SDS011;14648;49.730;8.614;2023-12-14T13:00:16;2.90;;;2.10;;
27113;SDS011;14648;49.730;8.614;2023-12-14T13:02:42;3.03;;;2.73;;
27113;SDS011;14648;49.730;8.614;2023-12-14T13:05:12;1.90;;;1.60;;
27113;SDS011;14648;49.730;8.614;2023-12-14T13:07:38;3.43;;;2.20;;
27113;SDS011;14648;49.730;8.614;2023-12-14T13:10:09;1.73;;;1.30;;
27113;SDS011;14648;49.730;8.614;2023-12-14T13:12:35;2.93;;;2.10;;
27113;SDS011;14648;49.730;8.614;2023-12-14T13:15:00;3.93;;;2.67;;
27113;SDS011;14648;49.730;8.614;2023-12-14T13:17:26;7.10;;;1.50;;
27113;SDS011;14648;49.730;8.614;2023-12-14T13:19:52;4.20;;;1.67;;
27113;SDS011;14648;49.730;8.614;2023-12-14T13:22:19;1.90;;;1.80;;
27113;SDS011;14648;49.730;8.614;2023-12-14T13:24:45;4.20;;;2.77;;
27113;SDS011;14648;49.730;8.614;2023-12-14T13:27:11;3.37;;;1.87;;
27113;SDS011;14648;49.730;8.614;2023-12-14T13:29:37;5.43;;;3.20;;
27113;SDS011;14648;49.730;8.614;2023-12-14T13:32:03;6.10;;;4.17;;
27113;SDS011;14648;49.730;8.614;2023-12-14T13:34:29;6.53;;;2.40;;
27113;SDS011;14648;49.730;8.614;2023-12-14T13:36:55;1.67;;;1.57;;
27113;SDS011;14648;49.730;8.614;2023-12-14T13:39:22;5.30;;;3.07;;
27113;SDS011;14648;49.730;8.614;2023-12-14T13:41:48;5.13;;;2.20;;
27113;SDS011;14648;49.730;8.614;2023-12-14T13:44:14;2.47;;;1.97;;
27113;SDS011;14648;49.730;8.614;2023-12-14T13:46:40;6.87;;;1.97;;
27113;SDS011;14648;49.730;8.614;2023-12-14T13:49:06;2.23;;;2.03;;
27113;SDS011;14648;49.730;8.614;2023-12-14T13:51:32;5.27;;;3.27;;
27113;SDS011;14648;49.730;8.614;2023-12-14T13:53:58;3.97;;;3.00;;
27113;SDS011;14648;49.730;8.614;2023-12-14T13:56:24;3.93;;;2.33;;
27113;SDS011;14648;49.730;8.614;2023-12-14T13:58:49;3.03;;;2.73;;
27113;SDS011;14648;49.730;8.614;2023-12-14T14:01:15;6.20;;;3.30;;
27113;SDS011;14648;49.730;8.614;2023-12-14T14:03:42;4.57;;;2.90;;
27113;SDS011;14648;49.730;8.614;2023-12-14T14:06:08;3.73;;;2.20;;
27113;SDS011;14648;49.730;8.614;2023-12-14T14:08:34;10.23;;;3.90;;
27113;SDS011;14648;49.730;8.614;2023-12-14T14:11:00;4.27;;;1.97;;
27113;SDS011;14648;49.730;8.614;2023-12-14T14:13:27;2.67;;;1.57;;
27113;SDS011;14648;49.730;8.614;2023-12-14T14:15:53;12.50;;;2.60;;
27113;SDS011;14648;49.730;8.614;2023-12-14T14:18:19;9.83;;;3.53;;
27113;SDS011;14648;49.730;8.614;2023-12-14T14:20:45;4.80;;;3.60;;
27113;SDS011;14648;49.730;8.614;2023-12-14T14:23:13;10.23;;;3.87;;
27113;SDS011;14648;49.730;8.614;2023-12-14T14:25:39;7.97;;;3.50;;
27113;SDS011;14648;49.730;8.614;2023-12-14T14:28:05;3.40;;;2.70;;
27113;SDS011;14648;49.730;8.614;2023-12-14T14:30:31;6.23;;;2.47;;
27113;SDS011;14648;49.730;8.614;2023-12-14T14:32:57;4.27;;;2.63;;
27113;SDS011;14648;49.730;8.614;2023-12-14T14:35:23;2.10;;;1.50;;
27113;SDS011;14648;49.730;8.614;2023-12-14T14:37:49;2.70;;;2.30;;
27113;SDS011;14648;49.730;8.614;2023-12-14T14:40:15;3.63;;;1.87;;
27113;SDS011;14648;49.730;8.614;2023-12-14T14:42:42;2.33;;;1.93;;
27113;SDS011;14648;49.730;8.614;2023-12-14T14:45:08;3.30;;;2.00;;
27113;SDS011;14648;49.730;8.614;2023-12-14T14:47:39;6.53;;;2.27;;
27113;SDS011;14648;49.730;8.614;2023-12-14T14:50:09;2.87;;;2.07;;